Time;durP1;ratioP1;P1;durP2;ratioP2;P2;SDS_P1;SDS_P2;PMS_P1;PMS_P2;Temp;Humidity;BMP_temperature;BMP_pressure;BME280_temperature;BME280_humidity;BME280_pressure;Samples;Min_cycle;Max_cycle;Signal;HPM_P1;HPM_P2
2020/12/22 00:01:48;;;;;;;2.37;2.17;;;9.10;99.90;;;;;;4888896;29;20212;-88
2020/12/22 00:04:14;;;;;;;5.90;4.33;;;9.10;99.90;;;;;;4885821;29;20229;-89
2020/12/22 00:06:40;;;;;;;4.43;4.03;;;9.10;99.90;;;;;;4901465;29;20233;-89
2020/12/22 00:09:05;;;;;;;6.40;4.27;;;;;;;;;;4895365;29;20185;-89
2020/12/22 00:11:32;;;;;;;2.97;2.67;;;;;;;;;;4901494;29;20189;-89
2020/12/22 00:13:58;;;;;;;4.17;3.67;;;;;;;;;;4886960;29;20192;-87
2020/12/22 00:16:24;;;;;;;2.33;2.13;;;;;;;;;;4886775;29;20189;-86
2020/12/22 00:18:49;;;;;;;2.50;2.00;;;9.20;99.90;;;;;;4898690;29;20289;-86
2020/12/22 00:21:19;;;;;;;5.07;3.67;;;9.20;99.90;;;;;;4886565;29;20213;-86
2020/12/22 00:23:45;;;;;;;4.13;3.20;;;9.20;99.90;;;;;;4888277;29;20175;-87
2020/12/22 00:26:15;;;;;;;3.37;3.07;;;9.30;99.90;;;;;;4896667;29;20688;-87
2020/12/22 00:28:40;;;;;;;3.77;3.30;;;9.20;99.90;;;;;;4902495;29;20189;-87
2020/12/22 00:31:06;;;;;;;3.33;2.73;;;9.20;99.90;;;;;;4888856;29;20185;-88
2020/12/22 00:33:32;;;;;;;4.30;2.70;;;9.30;99.90;;;;;;4884621;29;20257;-88
2020/12/22 00:35:57;;;;;;;3.30;2.93;;;9.30;99.90;;;;;;4887890;29;20196;-88
2020/12/22 00:38:23;;;;;;;3.80;2.83;;;9.30;99.90;;;;;;4886051;29;20165;-87
2020/12/22 00:40:48;;;;;;;3.77;2.60;;;9.30;99.90;;;;;;4896109;29;20209;-88
2020/12/22 00:43:14;;;;;;;4.00;2.83;;;9.30;99.90;;;;;;4884900;29;20217;-87
2020/12/22 00:45:39;;;;;;;4.73;2.93;;;9.40;99.90;;;;;;4896661;29;20199;-87
2020/12/22 00:48:05;;;;;;;3.70;2.67;;;9.40;99.90;;;;;;4884599;29;20196;-88
2020/12/22 00:50:31;;;;;;;2.90;2.60;;;9.40;99.90;;;;;;4900608;29;20232;-88
2020/12/22 00:52:58;;;;;;;3.20;2.60;;;;;;;;;;4882962;29;20204;-87
2020/12/22 00:55:24;;;;;;;5.90;2.50;;;;;;;;;;4885310;29;20188;-88
2020/12/22 00:57:53;;;;;;;2.73;2.23;;;9.40;99.90;;;;;;4889737;29;20193;-87
2020/12/22 01:00:20;;;;;;;5.23;3.60;;;9.40;99.90;;;;;;4883741;29;20197;-87
2020/12/22 01:02:46;;;;;;;6.43;4.10;;;9.40;99.90;;;;;;4884449;29;20211;-88
2020/12/22 01:05:12;;;;;;;3.00;2.70;;;;;;;;;;4901710;29;20222;-88
2020/12/22 01:07:38;;;;;;;3.80;3.30;;;;;;;;;;4886377;29;20256;-88
2020/12/22 01:10:04;;;;;;;3.37;3.07;;;9.80;99.90;;;;;;4887930;29;20237;-87
2020/12/22 01:12:30;;;;;;;3.37;2.80;;;9.40;99.90;;;;;;4884687;29;20245;-88
2020/12/22 01:14:56;;;;;;;4.20;3.50;;;9.50;99.90;;;;;;4892648;29;20200;-88
2020/12/22 01:17:21;;;;;;;3.77;2.77;;;9.50;99.90;;;;;;4886104;29;20189;-87
2020/12/22 01:19:47;;;;;;;5.50;3.47;;;;;;;;;;4886985;29;20233;-87
2020/12/22 01:22:13;;;;;;;3.40;2.90;;;9.40;99.90;;;;;;4885697;29;20168;-87
2020/12/22 01:24:39;;;;;;;4.83;3.43;;;9.40;99.90;;;;;;4914486;29;20203;-87
2020/12/22 01:27:04;;;;;;;3.80;2.63;;;9.50;99.90;;;;;;4896484;29;20217;-88
2020/12/22 01:29:30;;;;;;;3.17;2.73;;;9.50;99.90;;;;;;4897756;29;20193;-87
2020/12/22 01:31:56;;;;;;;6.53;3.23;;;;;;;;;;4900685;29;20201;-88
2020/12/22 01:34:22;;;;;;;5.60;2.70;;;;;;;;;;4881813;29;20209;-88
2020/12/22 01:36:48;;;;;;;2.73;2.47;;;;;;;;;;4879602;29;20197;-88
2020/12/22 01:39:14;;;;;;;4.00;3.17;;;9.50;99.90;;;;;;4901736;29;20680;-87
2020/12/22 01:41:40;;;;;;;3.47;3.00;;;;;;;;;;4898178;29;20197;-88
2020/12/22 01:44:10;;;;;;;2.90;2.57;;;9.50;99.90;;;;;;4877429;29;20189;-88
2020/12/22 01:46:42;;;;;;;5.17;2.37;;;9.60;99.90;;;;;;4898256;29;20224;-87
2020/12/22 01:49:23;;;;;;;3.50;2.60;;;9.60;99.90;;;;;;4882523;29;20189;-88
2020/12/22 01:51:50;;;;;;;1.67;1.57;;;10.50;99.90;;;;;;4883754;29;20208;-87
2020/12/22 01:54:17;;;;;;;2.60;2.07;;;9.60;99.90;;;;;;4896536;29;20228;-87
2020/12/22 01:56:43;;;;;;;2.80;2.60;;;9.60;99.90;;;;;;4881172;29;20256;-87
2020/12/22 01:59:09;;;;;;;1.63;1.53;;;9.60;99.90;;;;;;4885595;29;20213;-87
2020/12/22 02:01:36;;;;;;;1.40;1.30;;;;;;;;;;4894431;29;20193;-87
2020/12/22 02:04:04;;;;;;;1.13;0.80;;;9.70;99.90;;;;;;4885001;29;20204;-87
2020/12/22 02:06:33;;;;;;;2.83;2.27;;;9.70;99.90;;;;;;4886470;29;20241;-87
2020/12/22 02:09:00;;;;;;;2.27;1.87;;;9.70;99.90;;;;;;4885035;29;20209;-88
2020/12/22 02:11:27;;;;;;;3.70;1.97;;;9.70;99.90;;;;;;4885705;29;20192;-87
2020/12/22 02:13:53;;;;;;;1.83;1.37;;;9.80;99.90;;;;;;4886028;29;20243;-87
2020/12/22 02:16:19;;;;;;;2.20;1.90;;;9.80;99.90;;;;;;4899208;29;20204;-87
2020/12/22 02:18:46;;;;;;;2.00;1.63;;;9.80;99.90;;;;;;4902801;29;21146;-87
2020/12/22 02:21:12;;;;;;;2.47;1.60;;;9.80;99.90;;;;;;4886271;29;20622;-88
2020/12/22 02:23:37;;;;;;;2.20;1.53;;;9.80;99.90;;;;;;4885674;29;20184;-88
2020/12/22 02:26:03;;;;;;;1.80;1.50;;;9.80;99.90;;;;;;4898734;29;20221;-88
2020/12/22 02:28:29;;;;;;;1.70;1.47;;;;;;;;;;4883312;29;20205;-87
2020/12/22 02:30:55;;;;;;;2.13;1.50;;;9.80;99.90;;;;;;4884144;29;20201;-88
2020/12/22 02:33:20;;;;;;;2.77;1.30;;;9.80;99.90;;;;;;4886090;29;20647;-88
2020/12/22 02:35:46;;;;;;;1.03;1.00;;;;;;;;;;4883647;29;20232;-87
2020/12/22 02:38:12;;;;;;;2.40;1.27;;;9.80;99.90;;;;;;4887323;29;20193;-88
2020/12/22 02:40:37;;;;;;;4.03;1.00;;;9.90;99.90;;;;;;4886332;29;20200;-87
2020/12/22 02:43:09;;;;;;;0.97;0.93;;;10.00;99.90;;;;;;4888650;29;20189;-87
2020/12/22 02:45:35;;;;;;;0.80;0.67;;;10.00;99.90;;;;;;4899777;29;20195;-88
2020/12/22 02:48:00;;;;;;;1.33;1.03;;;;;;;;;;4884015;29;20236;-87
2020/12/22 02:50:26;;;;;;;0.70;0.70;;;10.10;99.90;;;;;;4884962;29;20273;-87
2020/12/22 02:52:53;;;;;;;0.77;0.77;;;10.10;99.90;;;;;;4885235;29;20188;-88
2020/12/22 02:55:19;;;;;;;0.50;0.50;;;10.20;99.90;;;;;;4887433;29;20220;-88
2020/12/22 02:57:44;;;;;;;0.47;0.47;;;10.30;99.90;;;;;;4882037;29;20213;-88
2020/12/22 03:00:12;;;;;;;0.50;0.50;;;10.40;99.70;;;;;;4884936;29;20196;-88
2020/12/22 03:02:38;;;;;;;0.60;0.60;;;10.40;99.60;;;;;;4903930;29;20189;-87
2020/12/22 03:05:03;;;;;;;0.50;0.50;;;10.50;99.10;;;;;;4886592;29;20209;-87
2020/12/22 03:07:29;;;;;;;0.30;0.30;;;10.50;99.10;;;;;;4888313;29;20237;-88
2020/12/22 03:09:55;;;;;;;0.53;0.50;;;10.50;99.00;;;;;;4901147;29;20669;-87
2020/12/22 03:12:20;;;;;;;0.97;0.50;;;10.50;98.80;;;;;;4881611;29;20253;-88
2020/12/22 03:14:46;;;;;;;0.40;0.40;;;;;;;;;;4886427;29;20250;-87
2020/12/22 03:17:12;;;;;;;0.47;0.40;;;10.60;98.40;;;;;;4885721;29;20220;-87
2020/12/22 03:19:38;;;;;;;0.57;0.57;;;10.60;98.30;;;;;;4904871;29;20203;-87
2020/12/22 03:22:07;;;;;;;0.40;0.40;;;10.70;98.00;;;;;;4888979;29;20184;-87
2020/12/22 03:24:33;;;;;;;1.40;0.40;;;10.80;97.60;;;;;;4881545;29;20208;-87
2020/12/22 03:26:59;;;;;;;0.37;0.37;;;10.80;97.40;;;;;;4901733;29;20227;-87
2020/12/22 03:29:24;;;;;;;0.63;0.50;;;10.80;97.30;;;;;;4884131;29;20228;-87
2020/12/22 03:31:50;;;;;;;0.30;0.30;;;10.90;97.00;;;;;;4899209;29;20208;-88
2020/12/22 03:34:16;;;;;;;0.40;0.40;;;;;;;;;;4887735;29;20204;-87
2020/12/22 03:36:43;;;;;;;0.40;0.40;;;;;;;;;;4886362;29;22645;-87
2020/12/22 03:39:09;;;;;;;0.40;0.40;;;;;;;;;;4878020;29;20213;-87
2020/12/22 03:41:35;;;;;;;0.53;0.53;;;11.00;96.60;;;;;;4899301;29;20737;-87
2020/12/22 03:44:01;;;;;;;0.50;0.47;;;;;;;;;;4877788;29;20337;-87
2020/12/22 03:46:26;;;;;;;0.30;0.30;;;10.90;97.20;;;;;;4879203;29;20237;-87
2020/12/22 03:48:53;;;;;;;0.30;0.30;;;;;;;;;;4901178;29;20524;-87
2020/12/22 03:51:18;;;;;;;0.33;0.33;;;10.90;97.20;;;;;;4888551;29;20195;-87
2020/12/22 03:53:44;;;;;;;0.27;0.27;;;10.90;97.10;;;;;;4883070;29;20255;-88
2020/12/22 03:56:10;;;;;;;0.20;0.20;;;10.90;96.80;;;;;;4886916;29;20190;-87
2020/12/22 03:58:36;;;;;;;0.40;0.40;;;;;;;;;;4899881;29;20201;-87
2020/12/22 04:01:01;;;;;;;0.30;0.30;;;10.90;97.00;;;;;;4886368;29;20284;-88
2020/12/22 04:03:27;;;;;;;0.30;0.30;;;;;;;;;;4885084;29;20229;-87
2020/12/22 04:05:53;;;;;;;2.63;0.60;;;;;;;;;;4883544;29;20185;-88
2020/12/22 04:08:20;;;;;;;0.20;0.20;;;;;;;;;;4883080;29;20185;-88
2020/12/22 04:10:46;;;;;;;0.40;0.40;;;;;;;;;;4883858;29;20198;-88
2020/12/22 04:13:12;;;;;;;0.30;0.30;;;;;;;;;;4884021;29;20209;-88
2020/12/22 04:15:38;;;;;;;0.20;0.20;;;10.90;97.90;;;;;;4895328;29;20194;-88
2020/12/22 04:18:04;;;;;;;0.60;0.50;;;;;;;;;;4882725;29;20205;-88
2020/12/22 04:20:30;;;;;;;0.27;0.27;;;10.90;98.20;;;;;;4885140;29;20182;-88
2020/12/22 04:22:55;;;;;;;0.37;0.30;;;10.90;98.20;;;;;;4881878;29;20533;-88
2020/12/22 04:25:21;;;;;;;0.73;0.50;;;11.00;98.30;;;;;;4885264;29;20186;-88
2020/12/22 04:27:47;;;;;;;0.37;0.30;;;11.00;98.10;;;;;;4882799;29;20221;-88
2020/12/22 04:30:12;;;;;;;0.70;0.70;;;11.00;98.30;;;;;;4886276;29;20208;-89
2020/12/22 04:32:38;;;;;;;1.07;0.40;;;11.00;98.30;;;;;;4884425;29;20264;-89
2020/12/22 04:35:05;;;;;;;0.47;0.47;;;11.00;98.30;;;;;;4896155;29;20189;-89
2020/12/22 04:37:31;;;;;;;0.33;0.33;;;;;;;;;;4902040;29;20200;-88
2020/12/22 04:39:57;;;;;;;0.30;0.30;;;;;;;;;;4881346;29;20177;-88
2020/12/22 04:42:24;;;;;;;0.47;0.47;;;11.00;98.30;;;;;;4901764;29;20554;-88
2020/12/22 04:44:50;;;;;;;0.50;0.50;;;11.00;98.30;;;;;;4888616;29;20287;-89
2020/12/22 04:47:17;;;;;;;3.07;0.30;;;11.10;98.30;;;;;;4884480;29;20224;-88
2020/12/22 04:49:46;;;;;;;0.40;0.40;;;11.10;98.30;;;;;;4884302;29;20213;-88
2020/12/22 04:52:13;;;;;;;0.50;0.50;;;11.10;98.30;;;;;;4883327;29;20196;-89
2020/12/22 04:54:39;;;;;;;0.30;0.30;;;11.00;98.30;;;;;;4901523;29;20218;-89
2020/12/22 04:57:06;;;;;;;0.60;0.60;;;11.10;98.30;;;;;;4884953;29;20199;-88
2020/12/22 04:59:33;;;;;;;0.30;0.30;;;11.10;98.30;;;;;;4902758;29;20186;-89
2020/12/22 05:01:59;;;;;;;1.57;0.50;;;11.20;97.60;;;;;;4887928;29;20187;-88
2020/12/22 05:04:38;;;;;;;0.27;0.27;;;11.20;97.80;;;;;;4896863;29;20302;-89
2020/12/22 05:07:05;;;;;;;0.87;0.60;;;11.10;98.00;;;;;;4885041;29;20220;-88
2020/12/22 05:09:31;;;;;;;0.27;0.27;;;11.20;97.80;;;;;;4883674;29;20242;-89
2020/12/22 05:11:56;;;;;;;0.53;0.40;;;11.20;97.80;;;;;;4881890;29;20201;-89
2020/12/22 05:14:28;;;;;;;1.00;0.47;;;11.20;97.60;;;;;;4883902;29;20294;-88
2020/12/22 05:16:55;;;;;;;0.40;0.40;;;11.20;97.50;;;;;;4882224;29;20189;-89
2020/12/22 05:19:21;;;;;;;0.30;0.30;;;11.30;97.50;;;;;;4881668;29;20311;-89
2020/12/22 05:21:50;;;;;;;1.20;0.40;;;11.30;97.30;;;;;;4884999;29;20205;-88
2020/12/22 05:24:16;;;;;;;0.33;0.27;;;11.40;96.90;;;;;;4899311;29;20192;-88
2020/12/22 05:26:43;;;;;;;0.47;0.40;;;11.40;96.70;;;;;;4886192;29;20417;-89
2020/12/22 05:29:11;;;;;;;0.10;0.10;;;11.40;96.70;;;;;;4884318;29;20212;-88
2020/12/22 05:31:48;;;;;;;0.83;0.70;;;11.50;96.80;;;;;;4886609;29;20373;-88
2020/12/22 05:34:15;;;;;;;0.20;0.20;;;11.50;96.60;;;;;;4895729;29;20188;-89
2020/12/22 05:36:43;;;;;;;0.43;0.43;;;11.50;96.50;;;;;;4885306;29;20709;-88
2020/12/22 05:39:13;;;;;;;0.30;0.30;;;11.50;96.50;;;;;;4897864;29;20290;-88
2020/12/22 05:41:39;;;;;;;0.40;0.40;;;;;;;;;;4884906;29;20240;-88
2020/12/22 05:44:05;;;;;;;0.40;0.40;;;;;;;;;;4878797;29;20708;-89
2020/12/22 05:46:33;;;;;;;1.07;0.67;;;11.60;96.80;;;;;;4885621;29;20294;-88
2020/12/22 05:49:01;;;;;;;0.30;0.30;;;11.80;96.10;;;;;;4886730;29;20198;-89
2020/12/22 05:51:27;;;;;;;0.50;0.50;;;;;;;;;;4898446;29;20267;-89
2020/12/22 05:54:06;;;;;;;0.30;0.30;;;11.80;95.90;;;;;;4884578;29;20214;-89
2020/12/22 05:56:32;;;;;;;0.30;0.27;;;11.90;95.70;;;;;;4895702;29;20569;-89
2020/12/22 05:58:58;;;;;;;0.40;0.40;;;;;;;;;;4883438;29;20569;-89
2020/12/22 06:01:38;;;;;;;0.30;0.30;;;11.90;95.90;;;;;;4880698;29;20202;-89
2020/12/22 06:04:08;;;;;;;0.30;0.27;;;11.90;96.10;;;;;;4881186;29;20223;-88
2020/12/22 06:06:36;;;;;;;0.40;0.33;;;;;;;;;;4891972;29;20235;-89
2020/12/22 06:09:02;;;;;;;0.40;0.37;;;11.80;96.90;;;;;;4898256;29;20212;-88
2020/12/22 06:11:29;;;;;;;0.43;0.40;;;11.80;96.90;;;;;;4896412;29;20206;-88
2020/12/22 06:13:57;;;;;;;0.60;0.50;;;11.80;96.90;;;;;;4899069;29;20191;-89
2020/12/22 06:16:23;;;;;;;1.63;0.53;;;;;;;;;;4881625;29;20199;-86
2020/12/22 06:18:50;;;;;;;0.40;0.40;;;11.80;96.90;;;;;;4883688;29;20213;-87
2020/12/22 06:21:21;;;;;;;0.20;0.20;;;11.80;96.90;;;;;;4883739;29;20192;-86
2020/12/22 06:23:50;;;;;;;0.80;0.70;;;11.80;96.90;;;;;;4884453;29;20640;-87
2020/12/22 06:26:19;;;;;;;0.50;0.50;;;11.80;97.00;;;;;;4882587;29;20255;-86
2020/12/22 06:28:45;;;;;;;0.33;0.33;;;11.80;96.90;;;;;;4876347;29;20231;-86
2020/12/22 06:31:31;;;;;;;0.30;0.30;;;11.80;96.90;;;;;;4882642;29;20219;-87
2020/12/22 06:33:57;;;;;;;0.20;0.20;;;;;;;;;;4881203;29;20235;-87
2020/12/22 06:36:23;;;;;;;0.30;0.30;;;11.80;96.50;;;;;;4893314;29;20251;-87
2020/12/22 06:38:57;;;;;;;0.40;0.40;;;11.80;96.40;;;;;;4880190;29;21205;-87
2020/12/22 06:41:35;;;;;;;0.70;0.60;;;11.90;96.40;;;;;;4882874;29;20191;-86
2020/12/22 06:44:16;;;;;;;0.30;0.30;;;11.90;96.30;;;;;;4876991;29;20238;-86
2020/12/22 06:46:48;;;;;;;4.23;0.37;;;11.90;96.30;;;;;;4882618;29;20320;-86
2020/12/22 06:49:14;;;;;;;0.30;0.30;;;;;;;;;;4898496;29;20594;-86
2020/12/22 06:51:42;;;;;;;2.00;0.40;;;11.90;96.10;;;;;;4885729;29;20196;-87
2020/12/22 06:54:13;;;;;;;0.90;0.68;;;12.00;95.50;;;;;;4896328;29;20453;-89
2020/12/22 06:56:47;;;;;;;0.80;0.73;;;11.90;96.10;;;;;;4883811;29;20203;-88
2020/12/22 06:59:33;;;;;;;0.57;0.57;;;11.80;96.60;;;;;;4885224;29;20203;-88
2020/12/22 07:01:59;;;;;;;0.67;0.57;;;11.80;96.90;;;;;;4898897;29;20194;-87
2020/12/22 07:04:25;;;;;;;1.73;0.87;;;11.80;97.30;;;;;;4900923;29;20542;-87
2020/12/22 07:06:56;;;;;;;0.63;0.60;;;11.70;97.90;;;;;;4884443;29;20300;-87
2020/12/22 07:09:33;;;;;;;0.83;0.60;;;11.70;97.90;;;;;;4885097;29;20212;-89
2020/12/22 07:12:10;;;;;;;0.40;0.37;;;11.70;97.90;;;;;;4883609;29;20196;-88
2020/12/22 07:14:48;;;;;;;0.43;0.43;;;11.60;98.20;;;;;;4896946;29;20203;-88
2020/12/22 07:17:18;;;;;;;0.30;0.30;;;11.60;98.20;;;;;;4885391;29;20197;-87
2020/12/22 07:19:46;;;;;;;0.63;0.50;;;11.60;98.20;;;;;;4900851;29;20654;-88
2020/12/22 07:22:14;;;;;;;0.37;0.37;;;11.60;97.90;;;;;;4885990;29;20201;-89
2020/12/22 07:24:41;;;;;;;0.40;0.40;;;11.70;97.90;;;;;;4901893;29;20195;-88
2020/12/22 07:27:08;;;;;;;0.30;0.30;;;11.60;98.20;;;;;;4900180;29;20221;-87
2020/12/22 07:29:39;;;;;;;0.57;0.50;;;11.60;98.10;;;;;;4884554;29;20219;-89
2020/12/22 07:32:05;;;;;;;1.70;0.60;;;;;;;;;;4886472;29;20191;-90
2020/12/22 07:34:32;;;;;;;0.50;0.50;;;11.70;98.30;;;;;;4890863;29;20176;-91
2020/12/22 07:37:06;;;;;;;0.60;0.60;;;11.60;98.50;;;;;;4924056;29;20293;-90
2020/12/22 07:39:33;;;;;;;0.90;0.57;;;11.60;98.40;;;;;;4906521;29;20816;-90
2020/12/22 07:42:17;;;;;;;0.60;0.60;;;11.60;98.60;;;;;;4909325;29;20366;-91
2020/12/22 07:44:49;;;;;;;0.30;0.30;;;11.60;98.80;;;;;;4904334;29;20190;-94
2020/12/22 07:47:15;;;;;;;0.40;0.30;;;;;;;;;;4894163;29;20205;-92
2020/12/22 07:49:43;;;;;;;0.60;0.53;;;11.60;98.90;;;;;;4895749;29;20218;-91
2020/12/22 07:52:16;;;;;;;0.50;0.50;;;11.60;99.00;;;;;;4878683;29;20397;-90
2020/12/22 07:54:58;;;;;;;0.50;0.43;;;;;;;;;;4873149;29;20343;-91
2020/12/22 07:57:26;;;;;;;4.67;1.00;;;11.60;98.90;;;;;;4889666;29;20306;-93
2020/12/22 08:00:13;;;;;;;0.70;0.60;;;11.60;99.00;;;;;;4891780;29;20291;-92
2020/12/22 08:02:46;;;;;;;1.17;0.60;;;;;;;;;;4876664;29;20187;-91
2020/12/22 08:05:32;;;;;;;1.60;0.53;;;;;;;;;;4898554;29;20199;-91
2020/12/22 08:07:59;;;;;;;0.50;0.50;;;11.70;98.90;;;;;;4931193;29;20244;-92
2020/12/22 08:10:26;;;;;;;1.80;0.70;;;;;;;;;;4905738;29;20210;-92
2020/12/22 08:12:57;;;;;;;2.20;0.80;;;11.80;98.40;;;;;;4927142;29;20197;-93
2020/12/22 08:15:30;;;;;;;0.40;0.40;;;11.80;98.20;;;;;;4912083;29;20258;-91
2020/12/22 08:18:06;;;;;;;0.40;0.40;;;11.80;98.00;;;;;;4928902;29;20232;-92
2020/12/22 08:20:49;;;;;;;0.40;0.40;;;11.90;97.60;;;;;;4884809;29;20234;-92
2020/12/22 08:23:38;;;;;;;1.80;0.60;;;;;;;;;;4879052;29;20179;-91
2020/12/22 08:26:17;;;;;;;0.70;0.70;;;;;;;;;;4933302;29;20262;-92
2020/12/22 08:28:50;;;;;;;0.57;0.50;;;;;;;;;;4920572;29;20202;-91
2020/12/22 08:31:20;;;;;;;0.40;0.40;;;12.10;96.40;;;;;;4926738;29;20606;-90
2020/12/22 08:33:58;;;;;;;0.40;0.40;;;12.20;96.40;;;;;;4928703;29;20199;-90
2020/12/22 08:36:31;;;;;;;1.83;0.60;;;12.20;95.70;;;;;;4907262;29;20183;-92
2020/12/22 08:39:44;;;;;;;1.43;0.90;;;12.20;95.90;;;;;;4913991;29;20204;-92
2020/12/22 08:42:19;;;;;;;0.50;0.50;;;12.20;95.70;;;;;;4887324;29;20203;-91
2020/12/22 08:44:55;;;;;;;2.83;0.93;;;12.20;96.10;;;;;;4910073;29;20199;-92
2020/12/22 08:47:25;;;;;;;0.40;0.40;;;;;;;;;;4839243;29;20242;-92
2020/12/22 08:49:51;;;;;;;2.20;0.50;;;;;;;;;;4893770;29;20212;-92
2020/12/22 08:52:21;;;;;;;0.50;0.50;;;;;;;;;;4891027;29;20619;-92
2020/12/22 08:54:59;;;;;;;1.30;0.40;;;12.50;94.00;;;;;;4867603;29;20212;-92
2020/12/22 08:57:25;;;;;;;0.77;0.67;;;;;;;;;;4860663;29;20225;-91
2020/12/22 08:59:51;;;;;;;0.40;0.30;;;12.60;93.80;;;;;;4885939;23;20709;-67
2020/12/22 09:02:29;;;;;;;0.43;0.43;;;12.70;93.70;;;;;;4870773;29;20192;-68
2020/12/22 09:04:56;;;;;;;0.47;0.43;;;;;;;;;;5592696;23;20306;-68
2020/12/22 09:09:53;;;;;;;0.87;0.57;;;12.70;93.30;;;;;;4864345;29;20222;-68
2020/12/22 09:12:19;;;;;;;1.27;0.63;;;;;;;;;;5268262;23;20350;-68
2020/12/22 09:14:49;;;;;;;0.73;0.53;;;12.80;93.00;;;;;;5297664;23;21460;-68
2020/12/22 09:17:31;;;;;;;0.30;0.30;;;12.80;92.80;;;;;;4860873;29;20193;-67
2020/12/22 09:19:57;;;;;;;0.63;0.47;;;12.80;92.50;;;;;;5361270;23;20657;-67
2020/12/22 09:22:24;;;;;;;0.73;0.50;;;12.90;92.30;;;;;;5063316;23;20325;-68
2020/12/22 09:24:55;;;;;;;1.73;1.20;;;12.80;92.80;;;;;;4890513;29;20194;-67
2020/12/22 09:27:42;;;;;;;0.80;0.70;;;12.90;92.90;;;;;;5011381;23;20230;-68
2020/12/22 09:30:13;;;;;;;0.60;0.40;;;12.80;92.80;;;;;;5199085;23;20231;-68
2020/12/22 09:32:39;;;;;;;1.07;0.53;;;;;;;;;;4938846;23;20544;-68
2020/12/22 09:35:05;;;;;;;0.30;0.30;;;12.80;92.70;;;;;;4904243;29;20254;-66
2020/12/22 09:37:31;;;;;;;0.57;0.57;;;12.80;92.90;;;;;;4908507;29;20303;-67
2020/12/22 09:39:57;;;;;;;0.83;0.80;;;12.90;93.00;;;;;;4905090;29;20973;-68
2020/12/22 09:42:24;;;;;;;0.50;0.50;;;12.90;92.70;;;;;;5017612;23;20245;-67
2020/12/22 09:44:50;;;;;;;0.40;0.40;;;;;;;;;;5009708;23;20247;-67
2020/12/22 09:47:16;;;;;;;0.50;0.50;;;12.90;92.60;;;;;;4885200;29;20262;-67
2020/12/22 09:49:42;;;;;;;0.53;0.50;;;12.90;92.60;;;;;;5495637;23;20251;-67
2020/12/22 09:52:08;;;;;;;0.83;0.67;;;12.90;92.60;;;;;;5415998;23;20240;-68
2020/12/22 09:54:33;;;;;;;1.00;0.80;;;13.00;92.50;;;;;;5100210;23;20269;-68
2020/12/22 09:56:59;;;;;;;0.43;0.43;;;;;;;;;;4931705;23;20708;-66
2020/12/22 09:59:25;;;;;;;0.50;0.50;;;13.10;91.60;;;;;;4869962;29;20237;-67
2020/12/22 10:01:51;;;;;;;1.10;0.80;;;13.10;91.50;;;;;;4886460;23;20249;-67
2020/12/22 10:04:18;;;;;;;0.77;0.63;;;13.10;91.60;;;;;;4977776;23;20671;-68
2020/12/22 10:06:44;;;;;;;0.60;0.57;;;13.10;91.40;;;;;;4894999;23;20263;-69
2020/12/22 10:09:10;;;;;;;0.70;0.53;;;13.20;91.20;;;;;;5330665;23;20233;-69
2020/12/22 10:14:12;;;;;;;0.60;0.53;;;13.20;91.30;;;;;;5334488;23;20246;-68
2020/12/22 10:47:42;;;;;;;0.60;0.47;;;;;;;;;;5392915;23;20241;-69
2020/12/22 10:50:08;;;;;;;0.47;0.47;;;;;;;;;;4893762;29;20187;-69
2020/12/22 10:52:33;;;;;;;19.23;2.20;;;13.50;90.80;;;;;;5730988;23;20367;-68
2020/12/22 11:03:08;;;;;;;0.50;0.40;;;;;;;;;;5000757;23;20338;-69
2020/12/22 11:08:19;;;;;;;0.60;0.50;;;13.50;91.00;;;;;;4881202;29;20275;-69
2020/12/22 11:13:21;;;;;;;16.17;2.03;;;13.80;90.40;;;;;;5816724;23;20748;-69
2020/12/22 11:15:46;;;;;;;0.80;0.60;;;13.70;90.70;;;;;;5150970;23;20245;-69
2020/12/22 11:41:34;;;;;;;0.40;0.40;;;13.90;90.60;;;;;;5468878;23;20713;-69
2020/12/22 11:44:01;;;;;;;1.17;1.00;;;13.90;90.80;;;;;;4894373;29;20186;-68
2020/12/22 11:46:26;;;;;;;0.97;0.87;;;14.00;90.80;;;;;;5606674;23;20273;-68
2020/12/22 11:48:53;;;;;;;0.63;0.53;;;13.90;91.00;;;;;;5165506;23;20237;-69
2020/12/22 12:09:29;;;;;;;0.90;0.60;;;14.10;90.80;;;;;;5517850;23;20242;-67
2020/12/22 12:11:54;;;;;;;1.13;0.83;;;14.00;90.80;;;;;;4904517;29;20202;-69
2020/12/22 12:14:21;;;;;;;1.07;0.90;;;14.00;91.10;;;;;;5028030;23;20313;-68
2020/12/22 12:21:57;;;;;;;0.80;0.80;;;;;;;;;;5367682;23;20259;-69
2020/12/22 12:24:23;;;;;;;0.50;0.50;;;;;;;;;;5178070;23;20248;-66
2020/12/22 12:26:49;;;;;;;0.50;0.50;;;;;;;;;;4890633;29;20226;-66
2020/12/22 12:29:15;;;;;;;0.60;0.60;;;;;;;;;;4881356;23;20629;-66
2020/12/22 12:31:41;;;;;;;0.70;0.70;;;13.90;93.00;;;;;;4867221;29;20449;-66
2020/12/22 12:34:07;;;;;;;0.70;0.70;;;;;;;;;;4879811;23;20234;-66
2020/12/22 12:36:33;;;;;;;0.70;0.67;;;;;;;;;;4869159;29;20273;-66
2020/12/22 12:38:58;;;;;;;0.70;0.70;;;13.80;94.60;;;;;;4878544;29;20230;-66
2020/12/22 12:41:25;;;;;;;0.57;0.57;;;;;;;;;;4876422;23;20238;-66
2020/12/22 12:43:50;;;;;;;0.57;0.57;;;13.70;95.10;;;;;;4872700;29;20325;-66
2020/12/22 12:46:16;;;;;;;0.53;0.53;;;13.80;94.60;;;;;;4899952;23;21084;-67
2020/12/22 12:48:42;;;;;;;0.60;0.50;;;13.90;93.80;;;;;;5051529;23;20254;-70
2020/12/22 12:51:09;;;;;;;0.70;0.70;;;13.90;93.80;;;;;;5285387;23;20243;-66
2020/12/22 12:53:37;;;;;;;0.63;0.63;;;13.90;93.80;;;;;;4936375;23;20228;-66
2020/12/22 12:56:03;;;;;;;0.50;0.50;;;;;;;;;;5018818;23;20243;-67
2020/12/22 12:58:29;;;;;;;0.97;0.93;;;13.90;93.00;;;;;;5351565;23;20233;-66
2020/12/22 13:00:55;;;;;;;0.70;0.70;;;14.00;92.40;;;;;;4872966;29;20204;-67
2020/12/22 13:03:20;;;;;;;0.60;0.60;;;14.10;92.00;;;;;;5055113;23;20246;-66
2020/12/22 13:05:46;;;;;;;0.87;0.80;;;14.10;91.50;;;;;;4885408;23;20245;-66
2020/12/22 13:08:11;;;;;;;0.80;0.80;;;14.10;91.40;;;;;;4886375;29;20289;-66
2020/12/22 13:10:37;;;;;;;0.50;0.50;;;14.20;91.00;;;;;;4880208;29;20195;-66
2020/12/22 13:13:04;;;;;;;1.13;0.90;;;;;;;;;;4895302;23;20309;-66
2020/12/22 13:15:30;;;;;;;0.70;0.70;;;;;;;;;;4889935;29;20197;-66
2020/12/22 13:17:55;;;;;;;0.93;0.83;;;14.20;90.90;;;;;;4880896;29;20586;-62
2020/12/22 13:20:21;;;;;;;0.40;0.40;;;14.20;91.30;;;;;;4889595;29;20214;-64
2020/12/22 13:22:46;;;;;;;1.03;0.90;;;14.10;91.30;;;;;;4889580;29;20309;-64
2020/12/22 13:25:12;;;;;;;0.50;0.50;;;14.10;91.40;;;;;;4881041;29;20292;-64
2020/12/22 13:27:38;;;;;;;0.33;0.33;;;14.20;91.40;;;;;;4889222;29;20552;-64
2020/12/22 13:30:05;;;;;;;0.63;0.63;;;14.20;91.40;;;;;;4887390;29;20258;-64
2020/12/22 13:32:31;;;;;;;0.70;0.67;;;14.20;91.30;;;;;;4881421;29;20280;-64
2020/12/22 13:34:56;;;;;;;0.37;0.37;;;14.20;92.00;;;;;;4889845;29;20295;-64
2020/12/22 13:37:22;;;;;;;0.63;0.63;;;14.20;91.30;;;;;;4886760;29;20629;-64
2020/12/22 13:39:47;;;;;;;2.07;0.70;;;14.20;91.20;;;;;;4880987;29;20184;-64
2020/12/22 13:42:13;;;;;;;0.60;0.60;;;14.20;90.90;;;;;;4883241;29;20574;-64
2020/12/22 13:44:39;;;;;;;0.43;0.43;;;14.20;90.90;;;;;;4886000;29;20280;-64
2020/12/22 13:47:06;;;;;;;1.13;0.90;;;14.20;90.90;;;;;;4887427;29;20601;-64
2020/12/22 13:49:32;;;;;;;0.57;0.57;;;14.30;90.50;;;;;;4886781;29;20531;-64
2020/12/22 13:51:58;;;;;;;0.90;0.87;;;14.30;90.50;;;;;;4881627;29;20333;-64
2020/12/22 13:54:23;;;;;;;0.50;0.50;;;14.30;90.70;;;;;;4890456;29;20705;-64
2020/12/22 13:56:49;;;;;;;1.03;0.93;;;14.20;90.90;;;;;;4890762;29;20257;-64
2020/12/22 13:59:15;;;;;;;1.53;0.90;;;14.20;91.10;;;;;;4886999;29;20204;-64
2020/12/22 14:01:41;;;;;;;1.90;1.00;;;;;;;;;;4889391;29;20232;-64
2020/12/22 14:04:06;;;;;;;0.53;0.53;;;14.10;92.00;;;;;;4886381;29;20212;-64
2020/12/22 14:06:32;;;;;;;0.57;0.57;;;14.00;92.30;;;;;;4897559;29;20323;-64
2020/12/22 14:08:58;;;;;;;0.50;0.50;;;14.10;92.00;;;;;;4888713;29;20209;-64
2020/12/22 14:11:23;;;;;;;2.57;0.70;;;14.10;91.90;;;;;;4888868;29;20199;-64
2020/12/22 14:13:51;;;;;;;0.97;0.60;;;14.10;92.00;;;;;;4887557;29;20725;-64
2020/12/22 14:16:17;;;;;;;0.67;0.67;;;14.10;91.30;;;;;;4886700;29;20649;-64
2020/12/22 14:18:44;;;;;;;0.70;0.70;;;14.10;91.40;;;;;;4891579;29;20583;-64
2020/12/22 14:21:16;;;;;;;0.60;0.60;;;14.10;91.20;;;;;;4889442;29;20650;-64
2020/12/22 14:23:42;;;;;;;0.93;0.80;;;14.20;90.90;;;;;;4891416;29;20202;-64
2020/12/22 14:26:09;;;;;;;1.07;0.97;;;14.20;90.90;;;;;;4888549;29;20192;-64
2020/12/22 14:28:35;;;;;;;1.83;0.83;;;14.30;90.90;;;;;;4887256;29;20238;-64
2020/12/22 14:31:01;;;;;;;0.67;0.67;;;;;;;;;;4882619;29;20197;-63
2020/12/22 14:33:27;;;;;;;0.93;0.70;;;14.30;90.60;;;;;;4892883;29;20471;-64
2020/12/22 14:35:53;;;;;;;0.87;0.60;;;14.20;90.30;;;;;;4901539;29;20204;-64
2020/12/22 14:38:19;;;;;;;0.93;0.80;;;;;;;;;;4887233;29;20646;-64
2020/12/22 14:40:45;;;;;;;1.40;0.70;;;;;;;;;;4889488;29;20204;-64
2020/12/22 14:43:11;;;;;;;1.83;1.27;;;14.20;90.30;;;;;;4887227;29;20181;-64
2020/12/22 14:45:37;;;;;;;0.70;0.70;;;14.20;90.60;;;;;;4888743;29;20196;-64
2020/12/22 14:48:03;;;;;;;0.60;0.60;;;14.20;90.40;;;;;;4882605;29;20217;-64
2020/12/22 14:50:28;;;;;;;0.70;0.60;;;14.20;90.40;;;;;;4887181;29;20280;-64
2020/12/22 14:52:54;;;;;;;0.97;0.73;;;14.10;90.40;;;;;;4888692;29;20218;-64